»·PEaware :: N3537B KEWR-KJFK

N3537B :: KEWR-KJFK

FLIGHT INFORMATION

Flight Status: Arrived
Operator: Privately registered:
United States
More flights under this callsign
Pilot: Justin M. (19723)
Aircraft: DASSAULT AVIATION FALCON 50
(FA50)
More flights by this aircraft type
Origin: KEWR Newark Intl
United States
Destination: KJFK Kennedy Intl
United States
More flights between these airports :: More routes between these airports
Route: EWR4 BREZY V39 CMK V419 JUDDS NELIE MAD V1 DPK
File this flight plan on PilotEdge
Remarks:
Altitude:
(Current/Filed)
11,000ft
Speed:
(Current/Filed)
333kts
Departed: 07-Dec-22 12:33 PM
Arrived: 07-Dec-22 01:12 PM
Distance/Time
Traveled:
17nm/0:39
Distance/Time
To Go:
Arrived

Flight Plot

Page will automatically refresh every two minutes.

Flight plan parsing failed; only flown route is shown


Map Options




Map Legend


Flown Route
Filed Route
Departure Airport
Arrival Airport
Navaid (VOR, NDB)
Fix

Horizontal Profiles

Position Reports

Time Latitude Longitude Heading Altitude Ground
Speed
07-Dec-22 12:26 40.703538 -74.168049 180 14ft 9kts
07-Dec-22 12:27 40.703340 -74.172395 274 14ft 15kts
07-Dec-22 12:28 40.703544 -74.177259 274 14ft 11kts
07-Dec-22 12:29 40.703640 -74.178583 275 14ft 0kts
07-Dec-22 12:30 40.703668 -74.179000 275 14ft 0kts
07-Dec-22 12:31 40.703708 -74.179610 272 14ft 1kts
07-Dec-22 12:32 40.703005 -74.180489 207 14ft 10kts
07-Dec-22 12:33 40.700950 -74.153430 87 609ft 168kts
07-Dec-22 12:34 40.737661 -74.091910 47 3396ft 259kts
07-Dec-22 12:35 40.792389 -74.112250 280 5977ft 271kts
07-Dec-22 12:36 40.840582 -74.176673 351 9665ft 286kts
07-Dec-22 12:37 40.928784 -74.166478 6 11008ft 364kts
07-Dec-22 12:38 41.034932 -74.151573 7 10999ft 388kts
07-Dec-22 12:39 41.108772 -74.056563 64 11002ft 390kts
07-Dec-22 12:40 41.155617 -73.926317 64 11000ft 391kts
07-Dec-22 12:41 41.202662 -73.796170 64 10999ft 390kts
07-Dec-22 12:42 41.249427 -73.666354 64 10999ft 389kts
07-Dec-22 12:43 41.306694 -73.545843 45 10998ft 384kts
07-Dec-22 12:44 41.382187 -73.444829 44 11000ft 387kts
07-Dec-22 12:44 41.445822 -73.359669 44 11000ft 390kts
07-Dec-22 12:46 41.535315 -73.239683 45 11000ft 392kts
07-Dec-22 12:47 41.612570 -73.137294 44 10999ft 389kts
07-Dec-22 12:48 41.688744 -73.034645 45 10999ft 387kts
07-Dec-22 12:48 41.729224 -72.932330 92 10996ft 386kts
07-Dec-22 12:49 41.662681 -72.833102 162 11007ft 386kts
07-Dec-22 12:51 41.542416 -72.784373 163 11000ft 388kts
07-Dec-22 12:51 41.454979 -72.761476 191 10993ft 389kts
07-Dec-22 12:52 41.357554 -72.816032 203 10992ft 355kts
07-Dec-22 12:53 41.272751 -72.865673 203 10992ft 307kts
07-Dec-22 12:55 41.185693 -72.916318 203 10383ft 288kts
07-Dec-22 12:55 41.123033 -72.927960 166 10013ft 292kts
07-Dec-22 12:56 41.043102 -72.901845 166 9999ft 296kts
07-Dec-22 12:57 40.964608 -72.897922 216 9369ft 286kts
07-Dec-22 12:58 40.923856 -72.984343 241 7786ft 274kts
07-Dec-22 12:59 40.888028 -73.071915 241 6295ft 267kts
07-Dec-22 13:00 40.852525 -73.157723 241 6001ft 268kts
07-Dec-22 13:01 40.816299 -73.244873 241 6000ft 272kts
07-Dec-22 13:02 40.788584 -73.336550 262 5471ft 264kts
07-Dec-22 13:03 40.789573 -73.426542 296 4075ft 242kts
07-Dec-22 13:04 40.820133 -73.506597 297 3630ft 241kts
07-Dec-22 13:05 40.807090 -73.578617 222 2989ft 197kts
07-Dec-22 13:06 40.766734 -73.623650 220 3001ft 191kts
07-Dec-22 13:07 40.730015 -73.664354 219 2154ft 181kts
07-Dec-22 13:08 40.691049 -73.707275 219 1260ft 179kts
07-Dec-22 13:09 40.655632 -73.746074 216 325ft 141kts
07-Dec-22 13:10 40.630851 -73.766218 220 12ft 55kts
07-Dec-22 13:11 40.631258 -73.774036 300 12ft 14kts
07-Dec-22 13:12 40.632237 -73.776177 301 12ft 0kts
07-Dec-22 13:13 40.633136 -73.778222 300 12ft 0kts
07-Dec-22 13:14 40.634290 -73.780826 301 12ft 21kts
07-Dec-22 13:15 40.637430 -73.787739 300 12ft 20kts
07-Dec-22 13:16 40.640171 -73.793828 301 12ft 18kts
07-Dec-22 13:17 40.640676 -73.794912 301 12ft 18kts

Navigation Log

Ident Type
Flight plan parsing failed, navigation log unavailable